Time;durP1;ratioP1;P1;durP2;ratioP2;P2;SDS_P1;SDS_P2;PMS_P1;PMS_P2;Temp;Humidity;BMP_temperature;BMP_pressure;BME280_temperature;BME280_humidity;BME280_pressure;Samples;Min_cycle;Max_cycle;Signal;HPM_P1;HPM_P2
2023/10/04 00:08:26;;;;;;;9.80;4.40;;;;;;;13.99;90.72;99434.40;436187;1251;139132;-68
2023/10/04 00:18:32;;;;;;;1.80;1.20;;;;;;;13.96;91.36;99514.00;436041;1256;139049;-68
2023/10/04 00:28:39;;;;;;;1.80;1.00;;;;;;;13.59;89.77;99509.35;436221;1251;139355;-66
2023/10/04 00:38:45;;;;;;;6.30;1.60;;;;;;;13.36;90.12;99537.80;436503;1256;139230;-67
2023/10/04 00:48:54;;;;;;;1.00;0.80;;;;;;;13.14;90.25;99568.10;435808;1251;140851;-67
2023/10/04 00:59:03;;;;;;;1.40;0.80;;;;;;;12.96;90.92;99584.89;436204;1255;140908;-66
2023/10/04 01:09:10;;;;;;;2.30;0.80;;;;;;;12.77;91.47;99609.44;436107;1256;139180;-66
2023/10/04 01:19:16;;;;;;;3.10;1.20;;;;;;;12.67;92.38;99617.72;436133;1253;140958;-68
2023/10/04 01:29:22;;;;;;;3.90;1.10;;;;;;;12.52;92.48;99650.03;435871;1253;139713;-66
2023/10/04 01:39:30;;;;;;;3.60;1.10;;;;;;;12.34;93.24;99669.70;435679;1251;139603;-66
2023/10/04 01:49:37;;;;;;;0.80;0.80;;;;;;;12.19;93.93;99690.73;436311;1251;140915;-67
2023/10/04 01:59:43;;;;;;;1.60;1.00;;;;;;;11.99;94.47;99711.38;435865;1253;139638;-67
2023/10/04 02:09:49;;;;;;;2.60;1.40;;;;;;;11.80;95.06;99726.83;435648;1251;139660;-67
2023/10/04 02:19:54;;;;;;;3.50;1.70;;;;;;;11.60;95.59;99744.45;435747;1256;140348;-67
2023/10/04 02:30:04;;;;;;;2.10;1.20;;;;;;;11.44;96.47;99752.17;436319;1251;139451;-66
2023/10/04 02:40:14;;;;;;;1.90;1.60;;;;;;;11.56;97.96;99768.72;435987;1256;139404;-67
2023/10/04 02:50:22;;;;;;;4.90;2.40;;;;;;;11.77;98.36;99773.52;435986;1255;139579;-67
2023/10/04 03:00:27;;;;;;;;;;;;;;;11.92;98.26;99806.95;436237;1251;139980;-66
2023/10/04 03:10:33;;;;;;;4.30;1.80;;;;;;;12.00;98.02;99826.06;436238;1251;126970;-67
2023/10/04 03:20:47;;;;;;;3.60;1.20;;;;;;;12.02;97.82;99854.72;436142;1253;139840;-67
2023/10/04 03:30:53;;;;;;;2.50;1.30;;;;;;;11.98;97.59;99867.09;435909;1253;140263;-67
2023/10/04 03:41:00;;;;;;;1.80;1.60;;;;;;;11.97;97.50;99887.98;435720;1255;139294;-67
2023/10/04 03:51:06;;;;;;;3.70;1.60;;;;;;;11.93;97.24;99898.08;435783;1251;140025;-67
2023/10/04 04:01:14;;;;;;;6.10;2.00;;;;;;;11.88;96.88;99904.87;436015;1251;140692;-69
2023/10/04 04:11:22;;;;;;;4.90;2.50;;;;;;;11.83;96.66;99921.51;436216;1253;140099;-67
2023/10/04 04:21:32;;;;;;;3.30;1.40;;;;;;;11.79;96.55;99926.15;435929;1253;140736;-68
2023/10/04 04:31:40;;;;;;;5.90;2.80;;;;;;;11.73;96.22;99933.70;435898;1255;139128;-67
2023/10/04 04:41:51;;;;;;;5.50;1.90;;;;;;;11.61;95.98;99940.42;436090;1251;139160;-68
2023/10/04 04:51:58;;;;;;;5.50;2.20;;;;;;;11.53;96.16;99942.00;436082;1255;139272;-67
2023/10/04 05:02:05;;;;;;;2.60;2.40;;;;;;;11.47;96.41;99946.38;435911;1251;139726;-67
2023/10/04 05:12:11;;;;;;;4.00;1.40;;;;;;;11.42;96.46;99965.10;435789;1254;139321;-64
2023/10/04 05:22:18;;;;;;;3.50;1.40;;;;;;;11.41;96.50;99980.61;436012;1254;140202;-64
2023/10/04 05:32:23;;;;;;;3.50;2.50;;;;;;;11.42;96.41;99988.93;436526;1256;139027;-71
2023/10/04 05:42:30;;;;;;;4.20;2.10;;;;;;;11.45;96.22;99999.27;436056;1254;139322;-76
2023/10/04 05:52:36;;;;;;;2.70;1.70;;;;;;;11.60;96.04;100008.70;436009;1255;139538;-74
2023/10/04 06:02:43;;;;;;;5.60;2.00;;;;;;;11.77;95.22;100026.60;436117;1255;139300;-72
2023/10/04 06:12:51;;;;;;;7.30;1.90;;;;;;;11.95;94.58;100038.30;435730;1255;139311;-72
2023/10/04 06:22:59;;;;;;;4.50;1.50;;;;;;;12.10;93.33;100048.50;438019;1255;139428;-69
2023/10/04 06:33:07;;;;;;;3.50;1.80;;;;;;;12.23;92.57;100052.19;435985;1254;139794;-74
2023/10/04 06:43:15;;;;;;;3.00;1.70;;;;;;;12.41;91.28;100057.91;436546;1255;139596;-66
2023/10/04 06:53:22;;;;;;;3.60;1.60;;;;;;;12.59;90.32;100070.45;435947;1254;140028;-70
2023/10/04 07:03:29;;;;;;;3.90;1.40;;;;;;;15.16;93.43;100074.70;436567;1255;139328;-71
2023/10/04 07:13:35;;;;;;;5.20;1.80;;;;;;;18.80;81.84;100089.59;438087;1255;139213;-67
2023/10/04 07:23:43;;;;;;;4.70;1.90;;;;;;;17.58;74.48;100106.34;437561;1256;139337;-79
2023/10/04 07:33:48;;;;;;;4.90;1.30;;;;;;;16.71;73.77;100117.61;438664;1255;140566;-72
2023/10/04 07:43:54;;;;;;;5.20;1.80;;;;;;;15.64;72.94;100134.76;437940;1254;139203;-72
2023/10/04 07:54:00;;;;;;;4.40;2.50;;;;;;;14.57;73.79;100146.27;439187;1254;140927;-78
2023/10/04 08:04:07;;;;;;;6.00;2.50;;;;;;;14.05;75.46;100154.51;437467;1254;139688;-64
2023/10/04 08:14:14;;;;;;;2.80;1.60;;;;;;;13.82;75.71;100162.60;436507;1254;139985;-65
2023/10/04 08:24:20;;;;;;;5.30;2.10;;;;;;;13.70;76.65;100166.36;436163;1254;139540;-77
2023/10/04 08:34:26;;;;;;;3.80;1.70;;;;;;;13.62;76.97;100168.50;437239;1254;140178;-68
2023/10/04 08:44:35;;;;;;;2.60;1.30;;;;;;;13.47;77.17;100162.99;436418;1251;139407;-69
2023/10/04 08:54:47;;;;;;;3.20;1.70;;;;;;;13.51;77.77;100169.80;436949;1254;139313;-71
2023/10/04 09:04:54;;;;;;;7.80;2.30;;;;;;;13.44;77.79;100161.98;435874;1251;139718;-65
2023/10/04 09:15:00;;;;;;;3.60;1.60;;;;;;;13.44;78.42;100162.87;436218;1255;139857;-68
2023/10/04 09:25:07;;;;;;;6.40;2.80;;;;;;;13.65;78.98;100167.27;435835;1254;139515;-64
2023/10/04 09:35:13;;;;;;;4.40;1.90;;;;;;;14.00;78.86;100169.63;436526;1255;139316;-71
2023/10/04 09:45:24;;;;;;;4.40;1.60;;;;;;;14.33;78.32;100164.20;437225;1256;139894;-66
2023/10/04 09:55:34;;;;;;;4.60;2.20;;;;;;;14.52;78.10;100169.21;437586;1253;139218;-69
2023/10/04 10:05:43;;;;;;;6.60;2.50;;;;;;;14.65;77.37;100172.85;437193;1254;139381;-75
2023/10/04 10:15:53;;;;;;;4.20;1.80;;;;;;;14.51;77.10;100179.30;437805;1255;140035;-68
2023/10/04 10:26:23;;;;;;;9.30;2.40;;;;;;;14.43;77.37;100179.36;436491;1255;139238;-67
2023/10/04 10:36:31;;;;;;;3.30;1.50;;;;;;;14.44;77.67;100178.95;437294;1254;139266;-66
2023/10/04 10:46:56;;;;;;;3.10;1.60;;;;;;;14.40;77.83;100176.70;436989;1256;139380;-68
2023/10/04 10:57:02;;;;;;;6.00;2.00;;;;;;;14.36;78.62;100175.59;436880;1254;139622;-73
2023/10/04 11:07:10;;;;;;;1.60;1.30;;;;;;;14.51;78.99;100173.70;435979;1256;139502;-74
2023/10/04 11:17:16;;;;;;;3.40;1.50;;;;;;;14.75;78.72;100166.36;439117;1255;141122;-74
2023/10/04 11:27:25;;;;;;;3.80;1.60;;;;;;;14.80;78.65;100156.98;439275;1254;139486;-72
2023/10/04 11:37:38;;;;;;;4.00;2.30;;;;;;;15.23;77.80;100153.91;438954;1255;139459;-75
2023/10/04 11:47:45;;;;;;;2.50;1.30;;;;;;;15.52;76.80;100152.06;439148;1256;140449;-70
2023/10/04 11:57:53;;;;;;;6.80;2.60;;;;;;;15.76;75.67;100146.76;436398;1256;140517;-65
2023/10/04 12:07:59;;;;;;;3.80;1.60;;;;;;;15.73;74.21;100155.80;436519;1256;139293;-60
2023/10/04 12:18:06;;;;;;;4.20;1.30;;;;;;;15.65;73.39;100158.68;436318;1256;140024;-63
2023/10/04 12:28:13;;;;;;;5.10;1.90;;;;;;;15.82;72.90;100159.34;437329;1255;139410;-61
2023/10/04 12:38:23;;;;;;;4.80;2.40;;;;;;;15.78;72.52;100162.61;435979;1257;139392;-62
2023/10/04 12:48:30;;;;;;;7.00;2.30;;;;;;;15.78;72.13;100171.14;436211;1257;140094;-63
2023/10/04 12:58:36;;;;;;;6.90;1.40;;;;;;;15.58;71.78;100171.38;435741;1255;139504;-63
2023/10/04 13:08:42;;;;;;;3.50;1.20;;;;;;;15.58;71.43;100174.91;435930;1256;139481;-63
2023/10/04 13:18:51;;;;;;;2.60;1.30;;;;;;;15.66;70.87;100164.26;435828;1256;139444;-63
2023/10/04 13:28:57;;;;;;;5.10;2.20;;;;;;;15.81;70.79;100157.12;435699;1257;140452;-63
2023/10/04 13:39:03;;;;;;;7.40;2.70;;;;;;;16.03;70.22;100158.98;436090;1251;139636;-62
2023/10/04 13:49:10;;;;;;;3.60;1.30;;;;;;;16.08;69.89;100158.45;435960;1255;140811;-63
2023/10/04 13:59:16;;;;;;;2.30;1.60;;;;;;;16.14;69.07;100157.61;435711;1257;140033;-62
2023/10/04 14:09:22;;;;;;;2.60;1.40;;;;;;;15.92;68.61;100156.68;435852;1255;139711;-62
2023/10/04 14:19:31;;;;;;;3.10;2.00;;;;;;;15.62;68.96;100154.89;435941;1251;139607;-63
2023/10/04 14:29:37;;;;;;;3.70;1.70;;;;;;;15.55;68.93;100158.19;435964;1253;140442;-63
2023/10/04 14:39:43;;;;;;;6.30;1.50;;;;;;;15.39;68.88;100155.00;436121;1251;140105;-64
2023/10/04 14:49:49;;;;;;;4.30;1.50;;;;;;;15.19;69.20;100160.56;436011;1251;142060;-63
2023/10/04 14:59:55;;;;;;;6.20;1.90;;;;;;;15.04;69.69;100161.31;435657;1257;143191;-67
2023/10/04 15:10:02;;;;;;;4.70;1.50;;;;;;;14.87;70.04;100162.48;436235;1251;140158;-67
2023/10/04 15:20:10;;;;;;;4.20;1.70;;;;;;;14.73;70.46;100159.42;436120;1254;141077;-68
2023/10/04 15:30:20;;;;;;;5.50;2.20;;;;;;;14.59;70.56;100155.66;436215;1256;140915;-69
2023/10/04 15:40:30;;;;;;;2.30;1.30;;;;;;;14.35;70.76;100161.94;436310;1251;139431;-67
2023/10/04 15:50:37;;;;;;;4.60;2.20;;;;;;;14.06;71.47;100161.88;436035;1257;139527;-68
2023/10/04 16:00:44;;;;;;;4.40;2.20;;;;;;;13.73;71.93;100170.26;435787;1255;141232;-68
2023/10/04 16:10:51;;;;;;;6.20;2.00;;;;;;;13.38;72.78;100178.20;436112;1251;139446;-68
2023/10/04 16:20:57;;;;;;;5.80;2.20;;;;;;;13.03;73.58;100188.85;436136;1255;142764;-66
2023/10/04 16:31:03;;;;;;;4.70;2.10;;;;;;;12.67;74.50;100206.44;435373;1255;139778;-67
2023/10/04 16:41:09;;;;;;;3.80;1.70;;;;;;;12.31;75.58;100214.27;435280;1256;139723;-66
2023/10/04 16:51:15;;;;;;;4.70;1.70;;;;;;;11.97;76.62;100221.55;435962;1251;139210;-67
2023/10/04 17:01:21;;;;;;;5.10;2.40;;;;;;;11.70;77.59;100223.48;436406;1255;141551;-66
2023/10/04 17:11:27;;;;;;;3.20;2.30;;;;;;;11.47;78.56;100234.59;436756;1256;139542;-66
2023/10/04 17:21:32;;;;;;;5.40;2.90;;;;;;;11.21;79.37;100239.02;435759;1256;139348;-66
2023/10/04 17:31:38;;;;;;;7.80;2.90;;;;;;;10.94;80.32;100242.60;436051;1255;139390;-66
2023/10/04 17:41:44;;;;;;;11.40;3.50;;;;;;;10.68;81.29;100246.98;436409;1251;139674;-66
2023/10/04 17:51:51;;;;;;;7.30;4.00;;;;;;;10.42;82.25;100241.85;435841;1255;140532;-66
2023/10/04 18:01:58;;;;;;;5.20;3.90;;;;;;;10.16;83.25;100240.92;435955;1251;140681;-65
2023/10/04 18:12:04;;;;;;;7.70;4.70;;;;;;;9.89;84.44;100239.66;436160;1251;140890;-65
2023/10/04 18:22:10;;;;;;;7.00;4.70;;;;;;;9.72;85.67;100252.27;435683;1251;139592;-66
2023/10/04 18:32:16;;;;;;;6.70;4.10;;;;;;;9.58;86.61;100257.46;436306;1251;139189;-70
2023/10/04 18:42:22;;;;;;;7.80;5.40;;;;;;;9.47;87.39;100274.77;435914;1256;140854;-69
2023/10/04 18:52:28;;;;;;;9.60;7.20;;;;;;;9.36;88.05;100281.05;435680;1251;140431;-69
2023/10/04 19:02:34;;;;;;;10.70;7.40;;;;;;;9.27;88.58;100274.86;435647;1251;140925;-70
2023/10/04 19:12:40;;;;;;;11.00;5.70;;;;;;;9.22;89.40;100275.43;435817;1251;141510;-68
2023/10/04 19:22:46;;;;;;;9.40;5.70;;;;;;;9.31;90.22;100278.70;435378;1251;581266;-67
2023/10/04 19:32:53;;;;;;;8.50;5.10;;;;;;;9.45;90.42;100280.09;435789;1251;139258;-68
2023/10/04 19:42:58;;;;;;;;;;;;;;;9.57;90.61;100284.42;436106;1251;139789;-67
2023/10/04 19:53:04;;;;;;;9.30;4.60;;;;;;;9.63;90.69;100279.10;436338;1254;126951;-67
2023/10/04 20:03:12;;;;;;;8.40;4.40;;;;;;;9.54;90.62;100276.23;436289;1251;139188;-68
2023/10/04 20:13:19;;;;;;;8.60;3.90;;;;;;;9.37;90.95;100279.09;436558;1251;139967;-69
2023/10/04 20:23:28;;;;;;;7.60;5.50;;;;;;;9.27;91.27;100278.50;436148;1254;140219;-68
2023/10/04 20:33:35;;;;;;;9.40;5.50;;;;;;;9.14;91.51;100279.63;436158;1255;139407;-68
2023/10/04 20:43:41;;;;;;;10.90;6.70;;;;;;;9.04;92.15;100280.83;436565;1251;139316;-68
2023/10/04 20:53:47;;;;;;;9.50;6.00;;;;;;;8.93;92.33;100276.61;436054;1253;140229;-69
2023/10/04 21:03:53;;;;;;;9.60;5.50;;;;;;;8.81;92.66;100270.52;435723;1254;140155;-68
2023/10/04 21:13:59;;;;;;;7.10;5.10;;;;;;;8.67;93.09;100268.38;436048;1251;139621;-67
2023/10/04 21:24:06;;;;;;;6.30;4.60;;;;;;;8.58;93.57;100274.52;435801;1251;139806;-67
2023/10/04 21:34:23;;;;;;;4.70;3.90;;;;;;;8.53;94.19;100272.66;435744;1251;140448;-67
2023/10/04 21:44:31;;;;;;;6.40;4.90;;;;;;;8.51;94.67;100279.02;436123;1251;139307;-69
2023/10/04 21:54:37;;;;;;;9.30;5.20;;;;;;;8.46;95.01;100272.04;436384;1255;139351;-70
2023/10/04 22:04:47;;;;;;;7.80;4.90;;;;;;;8.36;95.32;100265.52;436567;1255;139323;-70
2023/10/04 22:14:55;;;;;;;6.60;5.30;;;;;;;8.29;95.77;100265.80;439205;1251;138938;-70
2023/10/04 22:25:03;;;;;;;7.20;5.60;;;;;;;8.21;95.68;100263.71;438788;1255;140514;-71
2023/10/04 22:35:14;;;;;;;5.50;4.60;;;;;;;8.10;96.11;100249.17;438940;1251;140308;-70
2023/10/04 22:45:20;;;;;;;9.60;6.20;;;;;;;8.05;96.44;100234.94;439055;1251;139031;-71
2023/10/04 22:55:26;;;;;;;7.00;5.80;;;;;;;8.04;96.73;100225.91;438579;1254;139850;-70
2023/10/04 23:05:33;;;;;;;7.20;4.80;;;;;;;8.00;96.86;100213.15;438742;1251;140251;-67
2023/10/04 23:15:39;;;;;;;7.80;5.80;;;;;;;7.94;96.95;100199.81;438914;1253;140724;-60
2023/10/04 23:25:48;;;;;;;6.20;5.40;;;;;;;7.85;97.23;100193.59;436035;1253;139060;-60
2023/10/04 23:35:57;;;;;;;5.60;4.90;;;;;;;7.72;97.31;100187.68;435518;1251;140985;-58
2023/10/04 23:46:03;;;;;;;11.00;6.70;;;;;;;7.63;97.93;100179.35;435777;1251;140773;-59
2023/10/04 23:56:10;;;;;;;10.10;6.70;;;;;;;7.50;97.63;100171.16;436035;1253;139163;-58
